Hillsborough, California
Current Conditions -  °F | °C
As of 4:56 AM on Thursday 23 Oct 2014 (Local Time) from KSFO Reporting Station
Broken Clouds Broken Clouds  
Wind Chill: 64°   Ceiling: 15000
Heat Index: 64°   Visibility: 10mi
Dew Point: 60°   Wind: 3mph
Humidity: 87%   Direction: 240°WSW
Pressure: 30.02"   Gusts: NA
Location:  37.58°N, 122.35°W
Report Text: KSFO 231156Z 24003KT 10SM FEW010 BKN150 18/16 A3002 RMK AO2 SLP166 T01780156 10189 20172 58007 $
Loading
Personal Weather Stations






























Interactive Weather Map
Tropical Storm Tracking
New forecast layout! Learn more

10-Day Weather Forecast

Advertisements
Track Severe Weather on mobile